Boynton Beach, Florida
Current Conditions -  °F | °C
As of 9:50 AM on Thursday 30 Oct 2014 (Local Time) from KBCT Reporting Station
Clear Clear  
Wind Chill: 79°   Ceiling: Unl
Heat Index: 81°   Visibility: 10mi
Dew Point: 68°   Wind: 7mph
Humidity: 69%   Direction: 340°NNW
Pressure: 29.99"   Gusts: NA
Location:  26.53°N, 80.06°W
Report Text: KBCT 301350Z 34006KT 10SM CLR 26/20 A2999
Loading
Personal Weather Stations






























Interactive Weather Map New forecast layout! Learn more

10-Day Weather Forecast

Advertisements
Track Severe Weather on mobile